Time;durP1;ratioP1;P1;durP2;ratioP2;P2;SDS_P1;SDS_P2;PMS_P1;PMS_P2;Temp;Humidity;BMP_temperature;BMP_pressure;BME280_temperature;BME280_humidity;BME280_pressure;Samples;Min_cycle;Max_cycle;Signal;HPM_P1;HPM_P2
2023/01/03 00:01:55;;;;;;;6.87;6.25;;;;;;;7.15;100.00;100177.72;1764002;80;21063;-56
2023/01/03 00:04:21;;;;;;;7.85;7.08;;;;;;;7.13;100.00;100171.55;1785609;79;21487;-56
2023/01/03 00:06:50;;;;;;;8.93;8.08;;;;;;;7.10;100.00;100176.98;1784218;79;21072;-56
2023/01/03 00:09:21;;;;;;;8.40;7.58;;;;;;;7.07;100.00;100177.93;1759014;79;21951;-56
2023/01/03 00:14:37;;;;;;;7.75;6.65;;;;;;;7.00;100.00;100180.36;1765316;80;21381;-56
2023/01/03 00:17:04;;;;;;;6.78;6.20;;;;;;;6.96;100.00;100176.48;1775011;78;21083;-56
2023/01/03 00:19:37;;;;;;;7.25;6.62;;;;;;;6.92;100.00;100173.00;1775725;79;21045;-56
2023/01/03 00:22:04;;;;;;;8.63;7.67;;;;;;;6.90;100.00;100177.50;1799597;78;21025;-56
2023/01/03 00:24:30;;;;;;;7.10;6.45;;;;;;;6.90;100.00;100175.28;1773832;78;21821;-55
2023/01/03 00:26:57;;;;;;;8.95;7.40;;;;;;;6.89;100.00;100166.87;1771639;79;21077;-55
2023/01/03 00:29:24;;;;;;;6.97;5.85;;;;;;;6.87;100.00;100165.56;1775070;79;21045;-55
2023/01/03 00:31:50;;;;;;;5.72;5.20;;;;;;;6.88;100.00;100163.31;1780850;79;21581;-55
2023/01/03 00:34:17;;;;;;;8.53;6.28;;;;;;;6.88;100.00;100161.98;1773453;79;21179;-55
2023/01/03 00:36:43;;;;;;;8.93;6.58;;;;;;;6.88;100.00;100150.39;1771652;79;22539;-55
2023/01/03 00:39:10;;;;;;;6.70;5.97;;;;;;;6.85;100.00;100145.98;1778353;79;21013;-55
2023/01/03 00:41:38;;;;;;;8.05;7.35;;;;;;;6.85;100.00;100140.64;1772243;79;21807;-55
2023/01/03 00:44:05;;;;;;;10.00;7.78;;;;;;;6.82;100.00;100142.92;1798618;78;21147;-55
2023/01/03 00:46:32;;;;;;;10.35;8.35;;;;;;;6.84;100.00;100145.56;1795385;78;21113;-55
2023/01/03 00:48:58;;;;;;;7.50;6.67;;;;;;;6.82;100.00;100145.60;1792828;78;21823;-55
2023/01/03 00:51:27;;;;;;;7.97;7.25;;;;;;;6.81;100.00;100142.50;1764316;79;21153;-55
2023/01/03 00:53:56;;;;;;;8.35;7.47;;;;;;;6.78;100.00;100133.24;1774875;79;21049;-55
2023/01/03 00:56:27;;;;;;;8.38;7.55;;;;;;;6.78;100.00;100138.59;1775188;79;22006;-55
2023/01/03 00:58:53;;;;;;;12.78;7.40;;;;;;;6.77;100.00;100129.27;1776473;79;21115;-55
2023/01/03 01:01:32;;;;;;;7.75;6.83;;;;;;;6.77;100.00;100121.23;1771171;79;21815;-55
2023/01/03 01:04:12;;;;;;;11.43;6.72;;;;;;;6.77;100.00;100119.44;1769524;79;21118;-56
2023/01/03 01:06:43;;;;;;;9.15;7.10;;;;;;;6.77;100.00;100122.12;1776493;79;21102;-56
2023/01/03 01:09:16;;;;;;;7.45;6.83;;;;;;;6.80;100.00;100125.18;1776659;79;21068;-56
2023/01/03 01:11:43;;;;;;;8.38;6.65;;;;;;;6.80;100.00;100125.18;1771757;79;21542;-56
2023/01/03 01:14:20;;;;;;;8.20;6.87;;;;;;;6.79;100.00;100120.29;1767829;79;21828;-55
2023/01/03 01:16:57;;;;;;;6.65;6.03;;;;;;;6.80;100.00;100114.48;1785122;79;21053;-56
2023/01/03 01:19:30;;;;;;;8.25;7.40;;;;;;;6.81;100.00;100111.73;1782967;78;21484;-56
2023/01/03 01:21:57;;;;;;;7.30;6.60;;;;;;;6.82;100.00;100108.14;1784695;79;21084;-56
2023/01/03 01:24:23;;;;;;;6.75;6.15;;;;;;;6.82;100.00;100101.45;1776321;79;21041;-56
2023/01/03 01:26:50;;;;;;;8.25;7.20;;;;;;;6.83;100.00;100092.52;1782785;79;21821;-56
2023/01/03 01:29:16;;;;;;;9.90;6.97;;;;;;;6.84;100.00;100088.92;1782270;79;21125;-56
2023/01/03 01:31:44;;;;;;;8.85;8.03;;;;;;;6.86;100.00;100082.65;1780846;79;21092;-56
2023/01/03 01:34:12;;;;;;;9.70;8.20;;;;;;;6.85;100.00;100077.75;1800617;78;21526;-57
2023/01/03 01:36:40;;;;;;;9.80;8.08;;;;;;;6.84;100.00;100067.52;1779653;79;21425;-56
2023/01/03 01:39:19;;;;;;;9.13;8.30;;;;;;;6.83;100.00;100063.53;1753056;79;21812;-56
2023/01/03 01:44:58;;;;;;;7.67;6.87;;;;;;;6.80;100.00;100067.66;1777476;79;21410;-57
2023/01/03 01:47:39;;;;;;;8.35;6.83;;;;;;;6.78;100.00;100058.79;1785033;78;20937;-56
2023/01/03 01:50:23;;;;;;;8.23;6.42;;;;;;;6.80;100.00;100056.46;1770495;79;20979;-56
2023/01/03 01:53:12;;;;;;;7.72;6.40;;;;;;;6.80;100.00;100049.77;1774891;79;22456;-56
2023/01/03 01:56:00;;;;;;;10.55;7.42;;;;;;;6.82;100.00;100049.73;1776257;79;21795;-56
2023/01/03 01:58:31;;;;;;;9.15;7.22;;;;;;;6.83;100.00;100039.00;1801527;78;21019;-56
2023/01/03 02:00:57;;;;;;;6.87;6.35;;;;;;;6.84;100.00;100035.86;1797913;78;21009;-56
2023/01/03 02:03:24;;;;;;;7.40;6.30;;;;;;;6.85;100.00;100032.27;1804481;77;20981;-56
2023/01/03 02:05:52;;;;;;;10.40;7.83;;;;;;;6.83;100.00;100032.30;1803704;78;22400;-57
2023/01/03 02:08:19;;;;;;;8.33;7.28;;;;;;;6.81;100.00;100028.79;1800661;78;21027;-56
2023/01/03 02:11:17;;;;;;;11.33;8.43;;;;;;;6.81;100.00;100026.11;1804466;78;21437;-56
2023/01/03 02:14:04;;;;;;;12.58;8.73;;;;;;;6.81;100.00;100019.88;1779297;78;20993;-56
2023/01/03 02:17:00;;;;;;;10.45;7.35;;;;;;;6.79;100.00;100019.95;1766152;79;21481;-56
2023/01/03 02:19:52;;;;;;;7.62;6.72;;;;;;;6.78;100.00;100012.84;1716293;81;22415;-56
2023/01/03 02:22:42;;;;;;;8.15;7.30;;;;;;;6.78;100.00;100009.30;1758173;79;20984;-56
2023/01/03 02:25:41;;;;;;;7.72;5.35;;;;;;;6.79;100.00;100007.03;1760457;79;20995;-56
2023/01/03 02:28:55;;;;;;;9.05;7.58;;;;;;;6.78;100.00;100007.95;1726611;79;21539;-56
2023/01/03 02:31:33;;;;;;;7.58;6.45;;;;;;;6.77;100.00;99999.05;1673214;83;21091;-56
2023/01/03 02:34:22;;;;;;;9.65;6.55;;;;;;;6.78;100.00;99995.91;1744360;79;21423;-54
2023/01/03 02:37:03;;;;;;;10.23;7.10;;;;;;;6.78;100.00;99992.78;1763151;79;21050;-56
2023/01/03 02:39:47;;;;;;;9.10;6.47;;;;;;;6.77;100.00;99988.80;1755010;80;21150;-54
2023/01/03 02:45:40;;;;;;;11.73;8.58;;;;;;;6.75;100.00;99975.92;1742130;80;21609;-55
2023/01/03 02:48:13;;;;;;;8.77;7.93;;;;;;;6.73;100.00;99981.31;1758307;79;21954;-55
2023/01/03 02:50:48;;;;;;;9.77;8.40;;;;;;;6.71;100.00;99981.84;1771510;79;21063;-55
2023/01/03 02:53:21;;;;;;;8.57;7.77;;;;;;;6.70;100.00;99982.77;1767740;79;21026;-55
2023/01/03 02:55:50;;;;;;;8.43;7.50;;;;;;;6.68;100.00;99980.58;1768349;79;21038;-55
2023/01/03 02:58:25;;;;;;;11.03;7.97;;;;;;;6.68;100.00;99982.38;1765639;79;21050;-55
2023/01/03 03:00:54;;;;;;;8.13;7.42;;;;;;;6.66;100.00;99969.05;1767652;79;22469;-55
2023/01/03 03:03:25;;;;;;;8.47;7.30;;;;;;;6.66;100.00;99970.84;1767488;79;21033;-55
2023/01/03 03:06:20;;;;;;;9.63;8.30;;;;;;;6.65;100.00;99977.11;1767551;78;21098;-55
2023/01/03 03:08:48;;;;;;;8.88;7.55;;;;;;;6.63;100.00;99979.85;1767348;78;22330;-56
2023/01/03 03:14:18;;;;;;;;;;;;;;;6.64;100.00;99982.03;1765820;79;21844;-54
2023/01/03 03:16:49;;;;;;;9.15;8.08;;;;;;;6.65;100.00;99977.11;1795482;78;20722;-55
2023/01/03 03:25:27;;;;;;;10.23;8.15;;;;;;;6.62;100.00;99979.43;1772072;78;21041;-55
2023/01/03 03:30:49;;;;;;;9.83;8.93;;;;;;;6.56;100.00;99982.26;1800622;78;21040;-55
2023/01/03 03:33:16;;;;;;;10.13;8.30;;;;;;;6.53;100.00;99976.14;1800951;78;21108;-55
2023/01/03 03:35:50;;;;;;;9.05;8.18;;;;;;;6.50;100.00;99977.09;1800993;78;21464;-54
2023/01/03 03:38:24;;;;;;;10.90;9.00;;;;;;;6.48;100.00;99976.70;1799482;78;21040;-54
2023/01/03 03:46:39;;;;;;;13.30;8.50;;;;;;;6.42;100.00;99965.73;1793505;78;21078;-57
2023/01/03 03:51:58;;;;;;;10.23;8.13;;;;;;;6.39;100.00;99959.12;1796924;78;21518;-55
2023/01/03 03:54:24;;;;;;;10.20;7.78;;;;;;;6.38;100.00;99955.57;1784064;78;22437;-55
2023/01/03 03:57:21;;;;;;;9.77;8.67;;;;;;;6.40;100.00;99959.09;1796824;78;21092;-55
2023/01/03 03:59:52;;;;;;;10.43;9.20;;;;;;;6.41;100.00;99957.30;1801781;78;21120;-55
2023/01/03 04:02:19;;;;;;;10.75;7.50;;;;;;;6.41;100.00;99947.93;1796180;77;21014;-55
2023/01/03 04:04:47;;;;;;;9.60;8.63;;;;;;;6.41;100.00;99946.59;1795350;78;21103;-55
2023/01/03 04:07:13;;;;;;;10.78;7.60;;;;;;;6.43;100.00;99944.77;1806719;78;21752;-55
2023/01/03 04:09:39;;;;;;;11.22;8.43;;;;;;;6.44;100.00;99943.84;1797642;78;21142;-55
2023/01/03 04:12:06;;;;;;;8.30;7.55;;;;;;;6.43;100.00;99931.39;1792935;78;21135;-54
2023/01/03 04:14:32;;;;;;;10.38;7.92;;;;;;;6.41;100.00;99945.26;1801718;78;21077;-55
2023/01/03 04:16:59;;;;;;;10.97;8.27;;;;;;;6.40;100.00;99937.70;1793521;78;21041;-55
2023/01/03 04:19:27;;;;;;;10.13;9.07;;;;;;;6.39;100.00;99930.59;1794725;78;21677;-55
2023/01/03 04:21:53;;;;;;;10.08;9.08;;;;;;;6.39;100.00;99924.36;1796996;77;21613;-55
2023/01/03 04:24:21;;;;;;;10.13;9.05;;;;;;;6.38;100.00;99928.84;1802529;78;21121;-55
2023/01/03 04:26:48;;;;;;;9.35;8.28;;;;;;;6.37;100.00;99934.25;1801518;77;21021;-55
2023/01/03 04:29:14;;;;;;;10.33;7.47;;;;;;;6.37;100.00;99936.92;1794131;78;21547;-55
2023/01/03 04:31:41;;;;;;;10.93;8.63;;;;;;;6.36;100.00;99933.37;1803358;78;22421;-58
2023/01/03 04:34:08;;;;;;;9.20;8.25;;;;;;;6.35;100.00;99928.94;1794448;78;21054;-55
2023/01/03 04:36:34;;;;;;;10.13;8.17;;;;;;;6.34;100.00;99924.97;1802990;78;21408;-54
2023/01/03 04:39:00;;;;;;;9.40;8.50;;;;;;;6.35;100.00;99928.06;1775128;79;21534;-55
2023/01/03 04:41:27;;;;;;;8.30;7.53;;;;;;;6.34;100.00;99920.50;1801089;78;21111;-55
2023/01/03 04:44:03;;;;;;;8.25;7.40;;;;;;;6.36;100.00;99921.80;1783696;78;22462;-55
2023/01/03 04:46:33;;;;;;;6.43;5.83;;;;;;;6.38;100.00;99919.97;1774308;79;21168;-55
2023/01/03 04:49:00;;;;;;;11.75;6.78;;;;;;;6.40;100.00;99918.98;1755092;79;21354;-55
2023/01/03 04:51:27;;;;;;;6.87;6.25;;;;;;;6.40;100.00;99912.75;1804793;77;21579;-55
2023/01/03 04:53:53;;;;;;;8.30;7.05;;;;;;;6.42;100.00;99913.14;1802213;78;20951;-55
2023/01/03 04:56:33;;;;;;;8.38;6.20;;;;;;;6.43;100.00;99906.88;1783878;78;21836;-55
2023/01/03 04:59:00;;;;;;;6.80;6.13;;;;;;;6.44;100.00;99912.64;1755754;79;20970;-57
2023/01/03 05:01:27;;;;;;;5.75;5.22;;;;;;;6.45;100.00;99910.84;1783272;78;21014;-55
2023/01/03 05:03:58;;;;;;;8.80;6.10;;;;;;;6.46;100.00;99912.59;1779128;78;20990;-55
2023/01/03 05:06:25;;;;;;;6.00;5.45;;;;;;;6.45;100.00;99909.51;1798669;78;21018;-55
2023/01/03 05:08:52;;;;;;;8.20;7.05;;;;;;;6.45;100.00;99918.86;1796893;78;22405;-55
2023/01/03 05:11:18;;;;;;;7.80;7.00;;;;;;;6.45;100.00;99914.85;1796397;78;21511;-56
2023/01/03 05:13:45;;;;;;;10.45;5.10;;;;;;;6.46;100.00;99916.61;1789727;78;21105;-55
2023/01/03 05:16:13;;;;;;;7.05;6.37;;;;;;;6.48;100.00;99905.84;1774092;78;20962;-54
2023/01/03 05:18:41;;;;;;;7.37;6.58;;;;;;;6.47;100.00;99903.63;1801190;78;20974;-54
2023/01/03 05:26:44;;;;;;;11.93;6.05;;;;;;;6.50;100.00;99905.34;1779768;79;21981;-55
2023/01/03 05:29:11;;;;;;;8.03;5.05;;;;;;;6.50;100.00;99900.88;1783320;79;21730;-55
2023/01/03 05:31:37;;;;;;;5.80;5.33;;;;;;;6.49;100.00;99893.77;1776374;79;21094;-54
2023/01/03 05:34:04;;;;;;;6.92;5.90;;;;;;;6.51;100.00;99895.95;1779506;79;21837;-55
2023/01/03 05:36:30;;;;;;;6.62;5.92;;;;;;;6.51;100.00;99887.92;1779980;79;21070;-54
2023/01/03 05:38:57;;;;;;;7.00;5.22;;;;;;;6.51;100.00;99889.27;1775808;79;21077;-54
2023/01/03 05:44:08;;;;;;;6.45;5.15;;;;;;;6.52;100.00;99886.13;1778516;78;21845;-55
2023/01/03 05:46:36;;;;;;;4.55;4.10;;;;;;;6.52;100.00;99883.00;1786703;79;22055;-55
2023/01/03 05:49:02;;;;;;;5.78;5.17;;;;;;;6.52;100.00;99882.12;1780980;79;21068;-55
2023/01/03 05:51:29;;;;;;;8.55;5.92;;;;;;;6.50;100.00;99891.52;1777492;79;21088;-55
2023/01/03 05:53:55;;;;;;;6.12;4.75;;;;;;;6.52;100.00;99893.69;1775478;79;21115;-55
2023/01/03 05:56:22;;;;;;;5.95;4.20;;;;;;;6.54;100.00;99894.98;1779098;79;21150;-57
2023/01/03 05:58:54;;;;;;;5.10;4.53;;;;;;;6.56;100.00;99895.34;1721897;80;21025;-56
2023/01/03 06:01:20;;;;;;;4.65;4.25;;;;;;;6.58;100.00;99898.85;1778331;79;21048;-56
2023/01/03 06:03:47;;;;;;;4.67;4.25;;;;;;;6.62;100.00;99898.31;1772535;79;21060;-56
2023/01/03 06:06:14;;;;;;;5.47;4.62;;;;;;;6.67;100.00;99897.23;1777169;78;21747;-56
2023/01/03 06:08:40;;;;;;;4.80;4.10;;;;;;;6.71;100.00;99901.59;1774457;78;21561;-55
2023/01/03 06:11:11;;;;;;;4.05;3.70;;;;;;;6.77;100.00;99899.18;1764804;79;21936;-56
2023/01/03 06:13:38;;;;;;;7.22;4.05;;;;;;;6.81;100.00;99907.52;1767168;79;21483;-56
2023/01/03 06:18:53;;;;;;;6.00;4.95;;;;;;;6.87;100.00;99901.12;1773291;79;21052;-55
2023/01/03 06:21:21;;;;;;;5.35;3.20;;;;;;;6.90;100.00;99896.52;1777940;78;21045;-55
2023/01/03 06:23:47;;;;;;;3.52;3.25;;;;;;;6.93;100.00;99902.25;1782087;78;21898;-55
2023/01/03 06:26:16;;;;;;;4.40;3.90;;;;;;;6.96;100.00;99900.84;1791042;78;21065;-55
2023/01/03 06:28:43;;;;;;;5.95;3.40;;;;;;;6.98;100.00;99895.83;1767703;79;21029;-55
2023/01/03 06:31:09;;;;;;;5.35;3.83;;;;;;;7.02;100.00;99901.97;1781865;78;21441;-56
2023/01/03 06:33:36;;;;;;;3.80;3.15;;;;;;;7.06;100.00;99896.45;1784399;78;22360;-56
2023/01/03 06:36:06;;;;;;;5.95;3.65;;;;;;;7.10;100.00;99889.22;1771527;79;22512;-55
2023/01/03 06:38:33;;;;;;;4.40;3.37;;;;;;;7.14;100.00;99889.55;1771670;79;21080;-55
2023/01/03 06:40:59;;;;;;;4.20;3.67;;;;;;;7.16;100.00;99901.94;1778328;79;21048;-55
2023/01/03 06:43:26;;;;;;;3.50;3.08;;;;;;;7.21;100.00;99911.18;1768079;79;21751;-55
2023/01/03 06:54:23;;;;;;;5.50;3.47;;;;;;;7.33;100.00;99906.75;1769100;79;21073;-55
2023/01/03 06:56:50;;;;;;;3.70;3.02;;;;;;;7.38;100.00;99920.88;1778059;78;21039;-56
2023/01/03 06:59:18;;;;;;;3.80;3.35;;;;;;;7.42;100.00;99916.28;1771319;79;21111;-55
2023/01/03 07:01:46;;;;;;;3.75;3.35;;;;;;;7.44;100.00;99917.99;1778366;79;23380;-55
2023/01/03 07:04:12;;;;;;;5.83;3.87;;;;;;;7.48;100.00;99920.13;1797044;78;21036;-56
2023/01/03 07:06:39;;;;;;;5.08;4.58;;;;;;;7.51;100.00;99928.03;1795956;78;21041;-56
2023/01/03 07:09:06;;;;;;;4.37;3.67;;;;;;;7.53;100.00;99929.75;1782081;78;21139;-56
2023/01/03 07:11:34;;;;;;;4.37;3.30;;;;;;;7.55;100.00;99928.36;1798982;78;21093;-55
2023/01/03 07:14:02;;;;;;;6.87;4.28;;;;;;;7.57;100.00;99938.57;1781205;78;21836;-55
2023/01/03 07:16:34;;;;;;;4.03;3.72;;;;;;;7.56;100.00;99936.81;1784797;78;21068;-55
2023/01/03 07:19:02;;;;;;;9.05;4.33;;;;;;;7.55;100.00;99939.08;1793182;77;21092;-55
2023/01/03 07:21:29;;;;;;;3.65;3.02;;;;;;;7.56;100.00;99943.05;1803208;78;21522;-55
2023/01/03 07:23:57;;;;;;;4.40;4.00;;;;;;;7.58;100.00;99949.21;1797823;78;21525;-56
2023/01/03 07:26:24;;;;;;;4.05;3.65;;;;;;;7.62;100.00;99955.81;1791116;78;21936;-55
2023/01/03 07:28:51;;;;;;;5.15;3.50;;;;;;;7.64;100.00;99960.67;1797371;77;21827;-55
2023/01/03 07:31:18;;;;;;;5.95;4.45;;;;;;;7.65;100.00;99957.95;1806910;78;21044;-56
2023/01/03 07:33:45;;;;;;;5.90;4.67;;;;;;;7.68;100.00;99959.62;1799446;78;21053;-56
2023/01/03 07:36:13;;;;;;;4.83;4.33;;;;;;;7.69;100.00;99960.92;1765587;78;22483;-55
2023/01/03 07:38:41;;;;;;;4.45;4.05;;;;;;;7.72;100.00;99964.84;1763780;80;21781;-55
2023/01/03 07:41:07;;;;;;;7.45;4.20;;;;;;;7.75;100.00;99970.08;1803829;78;20949;-55
2023/01/03 07:43:40;;;;;;;4.50;4.10;;;;;;;7.77;100.00;99966.89;1794876;78;21037;-55
2023/01/03 07:46:23;;;;;;;8.25;4.62;;;;;;;7.81;100.00;99975.27;1778364;78;21488;-55
2023/01/03 07:48:51;;;;;;;6.55;4.42;;;;;;;7.84;100.00;99972.92;1806065;78;20973;-56
2023/01/03 07:51:20;;;;;;;5.35;4.83;;;;;;;7.86;100.00;99973.75;1795786;78;21773;-56
2023/01/03 07:53:51;;;;;;;6.17;4.70;;;;;;;7.86;100.00;99971.08;1780814;78;21444;-56
2023/01/03 07:56:19;;;;;;;5.50;4.28;;;;;;;7.87;100.00;99970.15;1783189;78;21030;-56
2023/01/03 07:58:47;;;;;;;5.22;4.25;;;;;;;7.86;100.00;99970.61;1780494;78;21030;-56
2023/01/03 08:01:18;;;;;;;5.50;5.00;;;;;;;7.87;100.00;99967.47;1771806;79;21029;-55
2023/01/03 08:03:44;;;;;;;6.17;5.15;;;;;;;7.89;100.00;99969.18;1776830;78;21731;-56
2023/01/03 08:06:14;;;;;;;5.15;4.30;;;;;;;7.91;100.00;99965.95;1782534;78;20956;-55
2023/01/03 08:08:41;;;;;;;6.33;4.83;;;;;;;7.95;100.00;99966.28;1789282;78;21438;-56
2023/01/03 08:13:57;;;;;;;7.22;5.62;;;;;;;7.99;100.00;99967.91;1776976;79;20985;-55
2023/01/03 08:16:23;;;;;;;7.70;4.90;;;;;;;8.00;100.00;99967.45;1785871;79;22413;-55
2023/01/03 08:18:50;;;;;;;7.53;4.80;;;;;;;8.02;100.00;99969.62;1777609;79;21439;-56
2023/01/03 08:21:17;;;;;;;6.80;5.05;;;;;;;8.04;100.00;99973.13;1771457;79;21751;-54
2023/01/03 08:23:44;;;;;;;5.90;5.40;;;;;;;8.05;100.00;99980.71;1764227;79;21089;-55
2023/01/03 08:26:15;;;;;;;6.83;5.22;;;;;;;8.06;100.00;99969.94;1770688;79;21084;-55
2023/01/03 08:28:42;;;;;;;6.58;5.75;;;;;;;8.05;100.00;99971.33;1770424;79;21775;-55
2023/01/03 08:31:17;;;;;;;5.25;4.80;;;;;;;8.07;100.00;99967.67;1770070;79;21259;-55
2023/01/03 08:33:51;;;;;;;4.90;4.50;;;;;;;8.10;100.00;99968.01;1760268;79;21039;-55
2023/01/03 08:36:18;;;;;;;5.55;5.05;;;;;;;8.12;100.00;99975.55;1774389;79;27551;-54
2023/01/03 08:38:48;;;;;;;6.58;5.12;;;;;;;8.12;100.00;99968.84;1769016;79;21554;-55
2023/01/03 08:41:15;;;;;;;4.83;4.42;;;;;;;8.15;100.00;99970.09;1770636;79;22869;-55
2023/01/03 08:43:42;;;;;;;5.22;4.83;;;;;;;8.17;100.00;99963.72;1765197;79;21089;-55
2023/01/03 08:46:10;;;;;;;4.90;4.53;;;;;;;8.20;100.00;99968.11;1764561;79;21568;-55
2023/01/03 08:48:36;;;;;;;5.53;5.03;;;;;;;8.24;100.00;99974.67;1760328;79;22354;-55
2023/01/03 08:51:03;;;;;;;6.45;5.78;;;;;;;8.28;100.00;99970.05;1767889;79;21086;-55
2023/01/03 08:53:31;;;;;;;6.58;5.65;;;;;;;8.29;100.00;99965.98;1764970;78;21780;-54
2023/01/03 08:55:59;;;;;;;10.45;5.92;;;;;;;8.32;100.00;99971.28;1771015;79;21056;-55
2023/01/03 08:58:25;;;;;;;6.17;5.15;;;;;;;8.35;100.00;99971.15;1774168;79;21099;-55
2023/01/03 09:00:52;;;;;;;8.58;5.92;;;;;;;8.39;100.00;99984.00;1764991;78;22403;-55
2023/01/03 09:03:18;;;;;;;7.37;6.40;;;;;;;8.45;100.00;99978.41;1766487;79;21048;-55
2023/01/03 09:05:45;;;;;;;6.62;5.87;;;;;;;8.51;100.00;99971.47;1765887;78;23052;-54
2023/01/03 09:08:12;;;;;;;6.15;5.42;;;;;;;8.56;100.00;99972.66;1770903;78;21062;-55
2023/01/03 09:10:39;;;;;;;5.40;4.97;;;;;;;8.63;100.00;99963.45;1752056;80;20993;-55
2023/01/03 09:13:06;;;;;;;6.65;5.97;;;;;;;8.67;100.00;99959.27;1761176;79;22118;-54
2023/01/03 09:15:32;;;;;;;7.42;5.47;;;;;;;8.74;100.00;99959.91;1777326;78;21044;-55
2023/01/03 09:17:59;;;;;;;6.10;5.53;;;;;;;8.81;100.00;99967.26;1764039;78;21644;-56
2023/01/03 09:20:26;;;;;;;5.92;5.35;;;;;;;8.88;100.00;99979.52;1773219;79;21040;-55
2023/01/03 09:22:52;;;;;;;5.85;5.30;;;;;;;8.92;100.00;99970.42;1769835;79;21056;-55
2023/01/03 09:25:19;;;;;;;5.95;5.42;;;;;;;8.95;100.00;99968.94;1782190;78;21394;-55
2023/01/03 09:27:46;;;;;;;5.58;4.62;;;;;;;8.98;100.00;99960.78;1801016;78;21045;-55
2023/01/03 09:30:13;;;;;;;6.65;5.67;;;;;;;9.01;100.00;99964.70;1803464;78;21818;-55
2023/01/03 09:32:40;;;;;;;7.80;7.03;;;;;;;9.05;100.00;99972.56;1804414;78;21018;-55
2023/01/03 09:35:08;;;;;;;7.53;5.58;;;;;;;9.08;100.00;99963.53;1802255;78;21017;-55
2023/01/03 09:37:36;;;;;;;5.92;5.37;;;;;;;9.11;100.00;99962.92;1804541;78;21111;-54
2023/01/03 09:40:04;;;;;;;5.97;4.87;;;;;;;9.17;100.00;99955.58;1800436;78;21045;-55
2023/01/03 09:43:31;;;;;;;6.87;5.47;;;;;;;9.22;100.00;99957.14;1799672;78;23681;-56
2023/01/03 09:45:16;;;;;;;6.85;6.17;;;;;;;9.26;100.00;99960.12;1782189;78;21005;-55
2023/01/03 09:47:43;;;;;;;6.92;5.62;;;;;;;9.32;100.00;99954.97;1776017;77;21044;-54
2023/01/03 09:50:19;;;;;;;6.53;5.67;;;;;;;9.35;100.00;99962.45;1774179;78;21057;-54
2023/01/03 10:05:01;;;;;;;5.47;4.97;;;;;;;9.47;100.00;99953.00;1803097;78;21076;-54
2023/01/03 10:07:50;;;;;;;6.80;4.83;;;;;;;9.53;100.00;99948.71;1799252;78;21029;-58
2023/01/03 10:10:34;;;;;;;6.50;5.87;;;;;;;9.59;100.00;99940.42;1778930;78;21873;-55
2023/01/03 10:13:18;;;;;;;5.37;4.75;;;;;;;9.63;100.00;99937.99;1770957;79;21030;-54
2023/01/03 10:16:16;;;;;;;5.35;4.92;;;;;;;9.69;100.00;99944.95;1777671;78;21490;-55
2023/01/03 10:18:50;;;;;;;6.08;5.47;;;;;;;9.74;100.00;99934.88;1764954;79;22399;-55
2023/01/03 10:21:25;;;;;;;6.62;6.00;;;;;;;9.81;100.00;99941.27;1782941;78;21071;-55
2023/01/03 10:23:52;;;;;;;7.67;6.90;;;;;;;9.87;100.00;99944.15;1803671;78;23409;-55
2023/01/03 10:26:19;;;;;;;5.95;5.47;;;;;;;9.91;100.00;99943.56;1788654;78;21593;-55
2023/01/03 10:28:45;;;;;;;7.12;5.87;;;;;;;9.93;100.00;99940.34;1795314;78;21024;-55
2023/01/03 10:33:08;;;;;;;5.20;4.57;;;;;;;9.95;100.00;99910.25;1791918;78;22237;-55
2023/01/03 10:35:35;;;;;;;5.20;4.60;;;;;;;9.96;100.00;99944.23;1763237;80;21025;-55
2023/01/03 10:38:02;;;;;;;5.72;4.58;;;;;;;9.94;100.00;99955.08;1761867;80;21818;-55
2023/01/03 10:40:39;;;;;;;5.37;4.67;;;;;;;9.95;100.00;99950.11;1755547;80;20991;-55
2023/01/03 10:43:32;;;;;;;5.95;5.17;;;;;;;9.97;100.00;99960.30;1758014;80;21498;-55
2023/01/03 10:46:02;;;;;;;7.45;4.78;;;;;;;10.01;100.00;99958.38;1729027;80;21425;-56
2023/01/03 10:48:40;;;;;;;7.12;4.78;;;;;;;10.05;100.00;99958.63;1757194;80;21002;-55
2023/01/03 10:51:32;;;;;;;5.30;4.62;;;;;;;10.09;100.00;99950.85;1762830;80;21779;-55
2023/01/03 10:54:00;;;;;;;7.20;5.00;;;;;;;10.12;100.00;99952.08;1761606;80;21430;-55
2023/01/03 10:56:28;;;;;;;6.67;5.90;;;;;;;10.13;100.00;99964.55;1760379;80;21035;-55
2023/01/03 10:59:30;;;;;;;7.58;5.25;;;;;;;10.13;100.00;99969.47;1757333;80;20982;-56
2023/01/03 11:02:12;;;;;;;7.85;4.78;;;;;;;10.13;100.00;99982.91;1756719;80;21027;-55
2023/01/03 11:04:38;;;;;;;7.85;6.72;;;;;;;10.13;100.00;99987.42;1765877;80;21810;-55
2023/01/03 11:07:12;;;;;;;7.83;5.87;;;;;;;10.13;100.00;99982.91;1758487;80;21490;-55
2023/01/03 11:09:57;;;;;;;7.00;6.33;;;;;;;10.15;100.00;99985.55;1757452;80;21464;-55
2023/01/03 11:12:40;;;;;;;6.40;5.25;;;;;;;10.20;100.00;99983.59;1748896;80;21050;-55
2023/01/03 11:15:33;;;;;;;6.37;5.45;;;;;;;10.23;100.00;99982.09;1757174;80;21039;-54
2023/01/03 11:18:07;;;;;;;6.70;4.67;;;;;;;10.28;100.00;99977.41;1740110;79;21854;-53
2023/01/03 11:20:44;;;;;;;7.78;5.67;;;;;;;10.35;100.00;99976.19;1737713;79;21581;-53
2023/01/03 11:23:33;;;;;;;7.60;5.00;;;;;;;10.41;100.00;99976.38;1744317;79;21048;-54
2023/01/03 11:26:28;;;;;;;6.70;4.37;;;;;;;10.46;100.00;99976.56;1741143;79;21072;-53
2023/01/03 11:29:32;;;;;;;4.40;4.00;;;;;;;10.49;100.00;99975.10;1744782;80;21096;-60
2023/01/03 11:32:25;;;;;;;4.62;4.22;;;;;;;10.49;100.00;99973.75;1746962;79;21782;-54
2023/01/03 11:35:31;;;;;;;4.30;3.90;;;;;;;10.47;100.00;99979.67;1733866;80;21331;-54
2023/01/03 11:38:18;;;;;;;6.67;4.33;;;;;;;10.45;100.00;99984.73;1727567;79;21068;-54
2023/01/03 11:41:03;;;;;;;4.67;4.17;;;;;;;10.40;100.00;99992.99;1742546;80;21108;-54
2023/01/03 11:43:47;;;;;;;4.80;4.05;;;;;;;10.39;100.00;100010.08;1737506;79;21530;-54
2023/01/03 11:46:25;;;;;;;3.90;3.55;;;;;;;10.37;100.00;100005.73;1738633;80;22545;-54
2023/01/03 11:49:15;;;;;;;5.33;4.12;;;;;;;10.35;100.00;100004.91;1732413;79;21026;-54
2023/01/03 11:52:02;;;;;;;4.58;4.17;;;;;;;10.35;100.00;99999.06;1736215;79;21344;-54
2023/01/03 11:55:06;;;;;;;4.75;4.20;;;;;;;10.36;100.00;100004.84;1739590;79;21130;-53
2023/01/03 11:58:22;;;;;;;8.28;6.08;;;;;;;10.38;100.00;100006.98;1739156;80;21089;-55
2023/01/03 12:01:18;;;;;;;6.62;4.42;;;;;;;10.35;100.00;100011.64;1740153;80;21827;-55
2023/01/03 12:04:14;;;;;;;6.33;5.08;;;;;;;10.29;100.00;99999.80;1726634;80;21113;-54
2023/01/03 12:07:18;;;;;;;7.90;4.72;;;;;;;10.24;100.00;100000.86;1733893;79;21515;-54
2023/01/03 12:09:59;;;;;;;7.58;5.22;;;;;;;10.21;100.00;100003.67;1737607;79;21609;-54
2023/01/03 12:12:55;;;;;;;6.90;4.95;;;;;;;10.21;100.00;100007.70;1732457;80;21076;-54
2023/01/03 12:15:39;;;;;;;5.42;4.47;;;;;;;10.23;100.00;100008.98;1736289;80;22954;-54
2023/01/03 12:18:26;;;;;;;6.55;4.85;;;;;;;10.25;100.00;100008.46;1734930;80;21085;-54
2023/01/03 12:20:58;;;;;;;5.92;4.87;;;;;;;10.26;100.00;100006.18;1730556;80;21490;-54
2023/01/03 12:23:33;;;;;;;5.92;5.42;;;;;;;10.26;100.00;100000.80;1734952;79;21613;-55
2023/01/03 12:26:09;;;;;;;7.87;6.72;;;;;;;10.27;100.00;99994.95;1744272;80;21038;-54
2023/01/03 12:28:47;;;;;;;5.87;5.37;;;;;;;10.25;100.00;99990.98;1734711;79;21080;-55
2023/01/03 12:31:38;;;;;;;5.80;5.17;;;;;;;10.21;100.00;99992.03;1728594;80;21475;-55
2023/01/03 12:34:22;;;;;;;5.70;4.97;;;;;;;10.18;100.00;99991.72;1726050;80;21077;-55
2023/01/03 12:37:17;;;;;;;6.22;5.53;;;;;;;10.18;100.00;99997.09;1725221;80;21061;-55
2023/01/03 12:39:54;;;;;;;7.60;6.28;;;;;;;10.19;100.00;99984.52;1723571;80;21058;-54
2023/01/03 12:42:46;;;;;;;6.28;5.25;;;;;;;10.22;100.00;99980.33;1726275;80;21738;-55
2023/01/03 12:45:43;;;;;;;6.40;5.80;;;;;;;10.28;100.00;99984.59;1726333;80;21093;-54
2023/01/03 12:48:27;;;;;;;6.45;5.80;;;;;;;10.28;100.00;99986.82;1722630;80;21045;-54
2023/01/03 12:50:54;;;;;;;5.05;4.62;;;;;;;10.30;100.00;99986.73;1730429;80;21061;-54
2023/01/03 12:53:49;;;;;;;5.05;4.60;;;;;;;10.31;100.00;99991.17;1721388;80;21535;-54
2023/01/03 12:56:53;;;;;;;6.10;3.87;;;;;;;10.31;100.00;99990.70;1723104;80;21300;-55
2023/01/03 12:59:52;;;;;;;3.90;3.50;;;;;;;10.29;100.00;99999.80;1725001;80;21038;-54
2023/01/03 13:02:30;;;;;;;4.20;3.80;;;;;;;10.27;100.00;100016.00;1723650;80;21089;-54
2023/01/03 13:05:02;;;;;;;5.37;4.25;;;;;;;10.27;100.00;100025.42;1723300;80;21136;-54